createdAt,value
2023-06-30T00:01:35.741Z,47.90
2023-06-30T00:04:06.101Z,48.08
2023-06-30T00:06:34.601Z,47.86
2023-06-30T00:09:07.288Z,47.99
2023-06-30T00:11:35.416Z,47.56
2023-06-30T00:14:03.688Z,47.52
2023-06-30T00:16:32.987Z,47.55
2023-06-30T00:19:01.861Z,47.52
2023-06-30T00:21:30.277Z,47.40
2023-06-30T00:24:05.411Z,47.50
2023-06-30T00:26:34.992Z,47.46
2023-06-30T00:29:03.285Z,47.11
2023-06-30T00:31:32.050Z,47.46
2023-06-30T00:34:01.010Z,47.55
2023-06-30T00:36:30.317Z,47.34
2023-06-30T00:39:01.436Z,47.16
2023-06-30T00:41:30.102Z,47.33
2023-06-30T00:44:00.438Z,46.91
2023-06-30T00:46:28.495Z,47.11
2023-06-30T00:48:57.324Z,47.31
2023-06-30T00:51:25.604Z,47.78
2023-06-30T00:53:53.629Z,47.51
2023-06-30T00:56:21.679Z,48.06
2023-06-30T00:58:49.681Z,47.98
2023-06-30T01:01:24.190Z,47.79
2023-06-30T01:03:53.928Z,47.65
2023-06-30T01:06:27.303Z,47.46
2023-06-30T01:08:57.309Z,47.28
2023-06-30T01:11:25.580Z,47.44
2023-06-30T01:13:53.937Z,47.50
2023-06-30T01:16:23.560Z,47.66
2023-06-30T01:18:54.188Z,47.60
2023-06-30T01:21:24.116Z,47.44
2023-06-30T01:23:54.466Z,47.48
2023-06-30T01:26:22.849Z,47.44
2023-06-30T01:28:52.223Z,47.75
2023-06-30T01:31:21.422Z,47.63
2023-06-30T01:33:51.301Z,47.88
2023-06-30T01:36:19.421Z,47.65
2023-06-30T01:38:47.769Z,47.67
2023-06-30T01:41:18.742Z,48.14
2023-06-30T01:43:46.971Z,48.17
2023-06-30T01:46:15.253Z,48.26
2023-06-30T01:48:44.378Z,48.38
2023-06-30T01:51:16.963Z,48.30
2023-06-30T01:53:45.416Z,48.11
2023-06-30T01:56:14.262Z,48.23
2023-06-30T01:58:42.299Z,47.91
2023-06-30T02:01:10.478Z,48.24
2023-06-30T02:03:38.918Z,47.91
2023-06-30T02:06:07.082Z,48.16
2023-06-30T02:08:39.086Z,48.20
2023-06-30T02:11:07.392Z,48.04
2023-06-30T02:13:35.662Z,48.17
2023-06-30T02:16:03.922Z,47.88
2023-06-30T02:18:32.022Z,48.18
2023-06-30T02:21:02.100Z,48.20
2023-06-30T02:23:31.355Z,48.08
2023-06-30T02:26:01.378Z,48.13
2023-06-30T02:28:29.405Z,48.05
2023-06-30T02:30:57.464Z,48.14
2023-06-30T02:33:25.621Z,48.31
2023-06-30T02:35:54.337Z,48.13
2023-06-30T02:38:22.405Z,48.33
2023-06-30T02:40:50.456Z,48.30
2023-06-30T02:43:20.005Z,48.32
2023-06-30T02:45:48.582Z,48.49
2023-06-30T02:48:17.110Z,48.32
2023-06-30T02:50:45.936Z,48.42
2023-06-30T02:53:16.363Z,48.41
2023-06-30T02:55:44.631Z,48.48
2023-06-30T02:58:16.368Z,48.61
2023-06-30T03:00:45.830Z,48.50
2023-06-30T03:03:13.936Z,48.62
2023-06-30T03:05:43.790Z,48.72
2023-06-30T03:08:13.422Z,48.67
2023-06-30T03:10:43.989Z,48.76
2023-06-30T03:13:12.001Z,48.68
2023-06-30T03:15:42.342Z,48.70
2023-06-30T03:18:11.810Z,48.77
2023-06-30T03:20:43.118Z,48.50
2023-06-30T03:23:11.543Z,48.60
2023-06-30T03:25:41.019Z,49.05
2023-06-30T03:28:11.367Z,49.47
2023-06-30T03:30:39.918Z,49.41
2023-06-30T03:33:09.324Z,49.66
2023-06-30T03:35:38.783Z,50.28
2023-06-30T03:38:06.980Z,50.42
2023-06-30T03:40:35.083Z,50.79
2023-06-30T03:43:04.082Z,50.70
2023-06-30T03:45:33.170Z,50.82
2023-06-30T03:48:01.619Z,51.42
2023-06-30T03:50:31.846Z,51.52
2023-06-30T03:53:02.100Z,51.89
2023-06-30T03:55:30.499Z,51.71
2023-06-30T03:57:58.907Z,52.13
2023-06-30T04:00:26.897Z,52.12
2023-06-30T04:02:55.221Z,52.33
2023-06-30T04:05:24.325Z,52.33
2023-06-30T04:07:52.365Z,52.31
2023-06-30T04:10:21.772Z,52.38
2023-06-30T04:12:49.780Z,52.52
2023-06-30T04:15:17.825Z,52.50
2023-06-30T04:17:46.115Z,52.21
2023-06-30T04:20:19.409Z,52.50
2023-06-30T04:22:48.405Z,52.61
2023-06-30T04:25:16.464Z,52.68
2023-06-30T04:27:45.971Z,52.90
2023-06-30T04:30:15.567Z,53.00
2023-06-30T04:32:44.026Z,53.14
2023-06-30T04:35:15.037Z,53.25
2023-06-30T04:37:43.459Z,53.43
2023-06-30T04:40:12.376Z,53.71
2023-06-30T04:42:40.565Z,53.89
2023-06-30T04:45:11.495Z,54.42
2023-06-30T04:47:39.982Z,54.38
2023-06-30T04:50:09.717Z,54.79
2023-06-30T04:52:37.784Z,55.18
2023-06-30T04:55:06.656Z,55.10
2023-06-30T04:57:37.645Z,55.89
2023-06-30T05:00:07.910Z,56.08
2023-06-30T05:02:37.728Z,56.12
2023-06-30T05:05:07.163Z,56.06
2023-06-30T05:07:35.340Z,56.21
2023-06-30T05:10:04.296Z,56.04
2023-06-30T05:12:33.799Z,56.08
2023-06-30T05:15:02.158Z,56.56
2023-06-30T05:17:31.097Z,56.87
2023-06-30T05:20:06.309Z,57.36
2023-06-30T05:22:35.882Z,57.76
2023-06-30T05:25:04.114Z,57.78
2023-06-30T05:27:32.520Z,57.96
2023-06-30T05:30:01.968Z,58.51
2023-06-30T05:32:30.472Z,59.38
2023-06-30T05:34:58.488Z,60.01
2023-06-30T05:37:28.931Z,60.50
2023-06-30T05:39:58.230Z,60.57
2023-06-30T05:42:26.363Z,60.61
2023-06-30T05:44:54.377Z,60.74
2023-06-30T05:47:22.871Z,60.98
2023-06-30T05:49:50.858Z,61.18
2023-06-30T05:52:22.822Z,61.26
2023-06-30T05:54:52.329Z,61.15
2023-06-30T05:57:20.593Z,61.04
2023-06-30T05:59:48.994Z,60.92
2023-06-30T06:02:17.098Z,60.82
2023-06-30T06:04:45.708Z,61.04
2023-06-30T06:07:14.930Z,61.26
2023-06-30T06:09:43.465Z,61.47
2023-06-30T06:12:13.033Z,61.72
2023-06-30T06:14:42.385Z,62.09
2023-06-30T06:17:10.566Z,62.34
2023-06-30T06:19:38.611Z,62.57
2023-06-30T06:22:08.416Z,62.72
2023-06-30T06:24:39.184Z,62.92
2023-06-30T06:27:07.824Z,63.01
2023-06-30T06:29:37.534Z,63.24
2023-06-30T06:32:06.675Z,63.36
2023-06-30T06:34:36.032Z,63.34
2023-06-30T06:37:04.308Z,63.34
2023-06-30T06:39:33.222Z,63.58
2023-06-30T06:42:01.494Z,63.59
2023-06-30T06:44:30.900Z,63.81
2023-06-30T06:47:37.295Z,63.78
2023-06-30T06:50:07.818Z,63.94
2023-06-30T06:52:36.360Z,63.83
2023-06-30T06:55:05.316Z,63.76
2023-06-30T06:57:33.355Z,63.92
2023-06-30T07:00:03.783Z,63.67
2023-06-30T07:02:37.139Z,63.68
2023-06-30T07:05:07.589Z,63.71
2023-06-30T07:07:35.842Z,63.73
2023-06-30T07:10:06.893Z,63.54
2023-06-30T07:12:34.899Z,63.71
2023-06-30T07:15:02.918Z,63.77
2023-06-30T07:17:30.946Z,63.76
2023-06-30T07:19:58.972Z,63.90
2023-06-30T07:22:28.825Z,63.85
2023-06-30T07:24:58.054Z,64.00
2023-06-30T07:27:26.939Z,63.91
2023-06-30T07:29:55.397Z,63.84
2023-06-30T07:32:26.830Z,63.88
2023-06-30T07:34:55.717Z,63.79
2023-06-30T07:37:24.811Z,63.82
2023-06-30T07:39:57.948Z,63.35
2023-06-30T07:42:28.236Z,63.48
2023-06-30T07:44:58.048Z,63.38
2023-06-30T07:47:27.024Z,63.59
2023-06-30T07:49:55.528Z,63.73
2023-06-30T07:52:26.741Z,64.02
2023-06-30T07:54:57.110Z,64.05
2023-06-30T07:57:27.991Z,64.04
2023-06-30T07:59:58.564Z,64.07
2023-06-30T08:02:29.154Z,64.11
2023-06-30T08:04:57.754Z,64.31
2023-06-30T08:07:44.236Z,64.22
2023-06-30T08:10:19.829Z,64.21
2023-06-30T08:12:48.031Z,64.29
2023-06-30T08:15:16.297Z,64.41
2023-06-30T08:17:54.543Z,64.41
2023-06-30T08:20:28.488Z,64.30
2023-06-30T08:22:56.862Z,63.96
2023-06-30T08:25:27.559Z,64.03
2023-06-30T08:27:55.647Z,63.81
2023-06-30T08:30:25.365Z,64.12
2023-06-30T08:32:57.185Z,63.87
2023-06-30T08:35:26.241Z,63.67
2023-06-30T08:37:54.720Z,63.65
2023-06-30T08:40:23.905Z,63.91
2023-06-30T08:42:54.134Z,63.84
2023-06-30T08:45:23.138Z,63.19
2023-06-30T08:47:51.247Z,63.56
2023-06-30T08:50:22.682Z,63.18
2023-06-30T08:52:51.938Z,63.05
2023-06-30T08:55:20.001Z,62.79
2023-06-30T08:57:53.132Z,62.88
2023-06-30T09:00:24.065Z,62.80
2023-06-30T09:02:52.636Z,62.91
2023-06-30T09:05:20.854Z,62.92
2023-06-30T09:07:52.324Z,62.76
2023-06-30T09:10:20.597Z,62.68
2023-06-30T09:12:49.035Z,62.67
2023-06-30T09:15:18.235Z,62.48
2023-06-30T09:17:56.964Z,62.47
2023-06-30T09:20:31.381Z,62.61
2023-06-30T09:23:00.950Z,62.39
2023-06-30T09:25:45.193Z,62.88
2023-06-30T09:28:15.742Z,62.08
2023-06-30T09:30:48.081Z,61.49
2023-06-30T09:33:18.391Z,61.51
2023-06-30T09:35:47.965Z,60.96
2023-06-30T09:38:17.999Z,60.83
2023-06-30T09:40:51.092Z,60.70
2023-06-30T09:43:19.896Z,60.86
2023-06-30T09:45:50.400Z,60.63
2023-06-30T09:48:21.584Z,60.24
2023-06-30T09:50:55.667Z,60.25
2023-06-30T09:53:27.734Z,61.25
2023-06-30T09:55:56.379Z,61.30
2023-06-30T09:58:38.219Z,61.39
2023-06-30T10:01:07.362Z,61.39
2023-06-30T10:03:37.867Z,62.01
2023-06-30T10:06:11.958Z,62.60
2023-06-30T10:11:09.304Z,62.91
2023-06-30T10:13:37.785Z,62.47
2023-06-30T10:16:09.496Z,62.42
2023-06-30T10:18:45.716Z,61.84
2023-06-30T10:21:13.909Z,62.06
2023-06-30T10:23:44.875Z,62.27
2023-06-30T10:26:20.790Z,62.33
2023-06-30T10:28:53.048Z,62.25
2023-06-30T10:31:22.912Z,61.91
2023-06-30T10:33:55.430Z,61.64
2023-06-30T10:36:25.152Z,60.27
2023-06-30T10:38:55.506Z,59.60
2023-06-30T10:41:23.716Z,59.02
2023-06-30T10:44:09.438Z,59.15
2023-06-30T10:46:47.850Z,59.41
2023-06-30T10:49:37.453Z,58.99
2023-06-30T10:52:07.763Z,59.38
2023-06-30T10:54:40.505Z,59.71
2023-06-30T10:57:10.788Z,58.85
2023-06-30T10:59:40.488Z,57.49
2023-06-30T11:02:14.848Z,57.57
2023-06-30T11:04:45.298Z,57.14
2023-06-30T11:07:18.570Z,58.05
2023-06-30T11:09:59.956Z,59.01
2023-06-30T11:12:28.915Z,59.71
2023-06-30T11:14:59.914Z,60.43
2023-06-30T11:17:30.298Z,60.43
2023-06-30T11:20:12.582Z,61.24
2023-06-30T11:22:41.564Z,61.81
2023-06-30T11:25:12.442Z,62.13
2023-06-30T11:27:42.902Z,62.84
2023-06-30T11:30:12.549Z,63.36
2023-06-30T11:32:41.821Z,64.30
2023-06-30T11:35:23.793Z,64.22
2023-06-30T11:37:53.502Z,65.19
2023-06-30T11:40:25.609Z,66.19
2023-06-30T11:42:54.471Z,66.39
2023-06-30T11:45:28.553Z,66.52
2023-06-30T11:47:58.002Z,66.97
2023-06-30T11:50:27.567Z,67.35
2023-06-30T11:55:39.173Z,67.36
2023-06-30T11:58:09.988Z,67.10
2023-06-30T12:00:38.468Z,67.40
2023-06-30T12:03:07.484Z,67.07
2023-06-30T12:05:46.532Z,67.12
2023-06-30T12:08:14.868Z,67.06
2023-06-30T12:10:43.004Z,67.24
2023-06-30T12:13:11.354Z,67.04
2023-06-30T12:15:39.427Z,66.40
2023-06-30T12:18:09.553Z,66.11
2023-06-30T12:20:44.397Z,65.65
2023-06-30T12:23:12.954Z,65.98
2023-06-30T12:25:41.268Z,66.01
2023-06-30T12:28:13.702Z,66.82
2023-06-30T12:30:42.269Z,66.85
2023-06-30T12:33:13.334Z,66.40
2023-06-30T12:35:42.946Z,66.65
2023-06-30T12:38:14.332Z,66.16
2023-06-30T12:40:42.674Z,66.19
2023-06-30T12:43:10.669Z,66.04
2023-06-30T12:45:39.036Z,66.20
2023-06-30T12:48:08.107Z,66.14
2023-06-30T12:50:36.295Z,65.98
2023-06-30T12:53:06.921Z,66.18
2023-06-30T12:55:38.633Z,66.41
2023-06-30T12:58:07.261Z,66.16
2023-06-30T13:00:37.862Z,66.09
2023-06-30T13:03:06.413Z,65.48
2023-06-30T13:05:34.834Z,65.10
2023-06-30T13:08:06.480Z,64.94
2023-06-30T13:10:35.047Z,64.97
2023-06-30T13:13:03.323Z,65.06
2023-06-30T13:15:33.626Z,65.47
2023-06-30T13:18:02.074Z,65.67
2023-06-30T13:20:31.483Z,65.57
2023-06-30T13:23:12.303Z,65.65
2023-06-30T13:25:56.038Z,65.96
2023-06-30T13:28:28.912Z,66.10
2023-06-30T13:30:58.289Z,66.42
2023-06-30T13:33:27.938Z,65.69
2023-06-30T13:35:56.825Z,65.63
2023-06-30T13:38:24.859Z,65.27
2023-06-30T13:40:54.417Z,65.33
2023-06-30T13:43:23.653Z,65.36
2023-06-30T13:45:52.378Z,66.16
2023-06-30T13:48:20.428Z,66.71
2023-06-30T13:50:48.587Z,66.89
2023-06-30T13:53:17.065Z,66.62
2023-06-30T13:55:46.832Z,66.92
2023-06-30T13:58:16.330Z,67.35
2023-06-30T14:00:47.894Z,67.06
2023-06-30T14:03:18.160Z,67.18
2023-06-30T14:05:50.661Z,66.96
2023-06-30T14:08:19.261Z,67.09
2023-06-30T14:10:49.870Z,66.85
2023-06-30T14:13:19.416Z,66.22
2023-06-30T14:15:48.094Z,66.03
2023-06-30T14:18:19.366Z,65.91
2023-06-30T14:20:51.295Z,66.08
2023-06-30T14:23:21.334Z,66.13
2023-06-30T14:25:51.613Z,66.60
2023-06-30T14:28:21.092Z,67.10
2023-06-30T14:30:49.362Z,66.95
2023-06-30T14:33:17.749Z,66.58
2023-06-30T14:35:46.441Z,66.70
2023-06-30T14:38:15.840Z,65.89
2023-06-30T14:40:44.602Z,65.90
2023-06-30T14:43:14.638Z,65.98
2023-06-30T14:45:49.244Z,65.58
2023-06-30T14:48:18.615Z,65.70
2023-06-30T14:50:49.632Z,65.71
2023-06-30T14:53:17.881Z,65.75
2023-06-30T14:55:51.623Z,65.48
2023-06-30T14:58:20.252Z,66.04
2023-06-30T15:00:53.618Z,66.04
2023-06-30T15:03:21.836Z,66.15
2023-06-30T15:05:50.384Z,66.37
2023-06-30T15:08:20.407Z,66.09
2023-06-30T15:10:49.087Z,66.53
2023-06-30T15:13:18.004Z,66.08
2023-06-30T15:15:54.667Z,66.32
2023-06-30T15:18:26.928Z,65.96
2023-06-30T15:20:55.811Z,66.24
2023-06-30T15:23:24.288Z,66.99
2023-06-30T15:25:53.841Z,66.81
2023-06-30T15:28:24.788Z,67.15
2023-06-30T15:30:55.812Z,67.76
2023-06-30T15:33:25.422Z,67.52
2023-06-30T15:35:53.892Z,67.54
2023-06-30T15:38:22.288Z,68.22
2023-06-30T15:40:59.703Z,67.89
2023-06-30T15:43:33.200Z,68.06
2023-06-30T15:46:04.035Z,67.98
2023-06-30T15:48:34.709Z,68.32
2023-06-30T15:51:04.571Z,68.21
2023-06-30T15:53:33.173Z,68.43
2023-06-30T15:56:05.282Z,68.33
2023-06-30T15:58:39.594Z,68.53
2023-06-30T16:01:08.839Z,69.15
2023-06-30T16:03:39.234Z,69.15
2023-06-30T16:06:07.551Z,69.22
2023-06-30T16:08:37.599Z,69.83
2023-06-30T16:11:05.870Z,69.72
2023-06-30T16:13:33.901Z,69.57
2023-06-30T16:16:01.960Z,69.78
2023-06-30T16:18:29.999Z,69.90
2023-06-30T16:20:59.439Z,69.95
2023-06-30T16:23:27.404Z,70.01
2023-06-30T16:25:55.395Z,70.10
2023-06-30T16:28:23.346Z,70.16
2023-06-30T16:30:51.468Z,70.34
2023-06-30T16:33:19.708Z,70.18
2023-06-30T16:35:48.141Z,70.31
2023-06-30T16:38:17.938Z,70.24
2023-06-30T16:40:45.980Z,70.38
2023-06-30T16:43:13.954Z,70.27
2023-06-30T16:45:41.994Z,70.37
2023-06-30T16:48:10.058Z,70.84
2023-06-30T16:50:38.074Z,70.60
2023-06-30T16:53:06.057Z,70.56
2023-06-30T16:55:35.453Z,70.44
2023-06-30T16:58:03.417Z,70.74
2023-06-30T17:00:31.459Z,70.49
2023-06-30T17:02:59.603Z,70.45
2023-06-30T17:05:27.751Z,71.09
2023-06-30T17:07:55.873Z,70.75
2023-06-30T17:10:23.837Z,71.06
2023-06-30T17:12:53.232Z,70.87
2023-06-30T17:15:21.300Z,71.32
2023-06-30T17:17:49.275Z,71.49
2023-06-30T17:20:17.408Z,71.50
2023-06-30T17:22:45.381Z,71.81
2023-06-30T17:25:13.381Z,71.25
2023-06-30T17:27:41.358Z,71.06
2023-06-30T17:30:12.378Z,71.02
2023-06-30T17:32:40.434Z,71.30
2023-06-30T17:35:09.241Z,71.24
2023-06-30T17:37:37.262Z,70.98
2023-06-30T17:40:06.131Z,71.28
2023-06-30T17:42:34.145Z,71.55
2023-06-30T17:45:02.126Z,71.72
2023-06-30T17:47:31.546Z,71.44
2023-06-30T17:50:01.528Z,71.73
2023-06-30T17:52:29.628Z,71.67
2023-06-30T17:54:57.609Z,71.62
2023-06-30T17:57:25.669Z,71.89
2023-06-30T17:59:53.759Z,71.56
2023-06-30T18:02:21.812Z,71.71
2023-06-30T18:04:51.651Z,72.37
2023-06-30T18:07:19.762Z,72.18
2023-06-30T18:09:47.957Z,72.21
2023-06-30T18:12:16.156Z,71.87
2023-06-30T18:14:44.202Z,71.89
2023-06-30T18:17:12.218Z,72.25
2023-06-30T18:19:41.103Z,72.22
2023-06-30T18:22:10.502Z,72.31
2023-06-30T18:24:38.588Z,72.37
2023-06-30T18:27:06.998Z,71.96
2023-06-30T18:29:35.035Z,72.26
2023-06-30T18:32:03.147Z,72.30
2023-06-30T18:34:31.161Z,72.25
2023-06-30T18:36:59.191Z,72.68
2023-06-30T18:39:28.521Z,72.05
2023-06-30T18:41:56.906Z,72.37
2023-06-30T18:44:26.094Z,72.41
2023-06-30T18:46:54.331Z,72.49
2023-06-30T18:49:24.860Z,72.49
2023-06-30T18:51:55.342Z,72.68
2023-06-30T18:54:23.680Z,72.57
2023-06-30T18:56:53.162Z,72.72
2023-06-30T18:59:21.369Z,72.49
2023-06-30T19:01:49.542Z,72.67
2023-06-30T19:04:17.997Z,72.42
2023-06-30T19:06:46.189Z,72.60
2023-06-30T19:09:14.518Z,72.76
2023-06-30T19:11:42.502Z,72.67
2023-06-30T19:14:11.951Z,72.71
2023-06-30T19:16:40.009Z,73.23
2023-06-30T19:19:08.031Z,72.99
2023-06-30T19:21:36.064Z,73.03
2023-06-30T19:24:04.122Z,72.96
2023-06-30T19:26:32.264Z,72.87
2023-06-30T19:29:00.306Z,73.01
2023-06-30T19:31:32.186Z,73.21
2023-06-30T19:34:00.215Z,73.12
2023-06-30T19:36:32.717Z,72.96
2023-06-30T19:39:01.169Z,72.76
2023-06-30T19:41:31.517Z,73.17
2023-06-30T19:43:59.581Z,72.84
2023-06-30T19:46:30.600Z,72.29
2023-06-30T19:48:58.811Z,72.61
2023-06-30T19:51:27.282Z,72.48
2023-06-30T19:53:55.304Z,72.20
2023-06-30T19:56:23.315Z,72.12
2023-06-30T19:58:51.326Z,71.98
2023-06-30T20:01:21.139Z,72.18
2023-06-30T20:03:50.628Z,72.07
2023-06-30T20:06:18.630Z,72.16
2023-06-30T20:08:46.819Z,72.08
2023-06-30T20:11:14.818Z,72.39
2023-06-30T20:13:42.780Z,72.36
2023-06-30T20:16:11.051Z,72.54
2023-06-30T20:18:39.048Z,72.36
2023-06-30T20:21:08.434Z,72.46
2023-06-30T20:23:36.482Z,71.99
2023-06-30T20:26:04.518Z,71.74
2023-06-30T20:28:32.549Z,71.61
2023-06-30T20:31:00.783Z,71.81
2023-06-30T20:33:29.119Z,71.75
2023-06-30T20:35:57.422Z,71.63
2023-06-30T20:38:26.875Z,71.19
2023-06-30T20:40:54.845Z,71.41
2023-06-30T20:43:22.845Z,71.15
2023-06-30T20:45:50.846Z,71.54
2023-06-30T20:48:18.898Z,71.61
2023-06-30T20:50:47.490Z,71.21
2023-06-30T20:53:15.649Z,71.10
2023-06-30T20:55:45.004Z,70.92
2023-06-30T20:58:13.062Z,70.98
2023-06-30T21:00:41.061Z,71.19
2023-06-30T21:03:10.229Z,70.69
2023-06-30T21:05:38.588Z,70.53
2023-06-30T21:08:06.649Z,70.85
2023-06-30T21:10:34.787Z,70.59
2023-06-30T21:13:04.207Z,70.95
2023-06-30T21:15:32.235Z,70.80
2023-06-30T21:18:00.334Z,70.90
2023-06-30T21:20:28.469Z,70.69
2023-06-30T21:22:56.523Z,70.32
2023-06-30T21:25:24.621Z,70.29
2023-06-30T21:27:52.669Z,70.16
2023-06-30T21:30:22.091Z,69.82
2023-06-30T21:32:50.091Z,70.05
2023-06-30T21:35:18.194Z,69.68
2023-06-30T21:37:46.293Z,69.50
2023-06-30T21:40:15.627Z,69.77
2023-06-30T21:42:45.512Z,69.36
2023-06-30T21:45:13.555Z,69.36
2023-06-30T21:47:42.980Z,69.33
2023-06-30T21:50:11.943Z,69.67
2023-06-30T21:52:39.950Z,69.39
2023-06-30T21:55:08.623Z,69.44
2023-06-30T21:57:36.689Z,69.45
2023-06-30T22:00:06.209Z,69.76
2023-06-30T22:02:34.602Z,69.74
2023-06-30T22:05:04.278Z,69.43
2023-06-30T22:07:32.288Z,69.31
2023-06-30T22:10:00.790Z,69.53
2023-06-30T22:12:28.797Z,69.46
2023-06-30T22:14:56.836Z,69.53
2023-06-30T22:17:24.842Z,69.46
2023-06-30T22:19:52.951Z,69.69
2023-06-30T22:22:22.290Z,69.25
2023-06-30T22:24:50.303Z,69.19
2023-06-30T22:27:18.289Z,69.08
2023-06-30T22:29:46.437Z,68.85
2023-06-30T22:32:14.709Z,69.12
2023-06-30T22:34:42.790Z,69.60
2023-06-30T22:37:10.908Z,69.49
2023-06-30T22:39:40.313Z,69.11
2023-06-30T22:42:08.629Z,69.21
2023-06-30T22:44:36.834Z,69.71
2023-06-30T22:47:05.295Z,69.46
2023-06-30T22:49:33.359Z,69.16
2023-06-30T22:52:01.396Z,69.07
2023-06-30T22:54:29.479Z,69.51
2023-06-30T22:56:58.866Z,69.13
2023-06-30T22:59:26.940Z,68.92
2023-06-30T23:01:55.047Z,68.86
2023-06-30T23:04:23.259Z,69.06
2023-06-30T23:06:51.306Z,68.55
2023-06-30T23:09:19.290Z,68.59
2023-06-30T23:11:47.284Z,68.69
2023-06-30T23:14:17.881Z,68.83
2023-06-30T23:16:47.376Z,68.88
2023-06-30T23:19:16.353Z,69.36
2023-06-30T23:21:45.330Z,68.82
2023-06-30T23:24:13.522Z,68.84
2023-06-30T23:26:42.094Z,68.69
2023-06-30T23:29:10.646Z,68.65
2023-06-30T23:31:40.275Z,68.99
2023-06-30T23:34:08.609Z,69.33
2023-06-30T23:36:37.304Z,69.47
2023-06-30T23:39:05.794Z,69.38
2023-06-30T23:41:33.952Z,69.29
2023-06-30T23:44:02.526Z,69.13
2023-06-30T23:46:31.610Z,69.57
2023-06-30T23:49:01.189Z,69.48
2023-06-30T23:51:29.219Z,68.72
2023-06-30T23:53:57.343Z,68.51
2023-06-30T23:56:25.324Z,68.62
2023-06-30T23:58:53.338Z,68.71
